Time;durP1;ratioP1;P1;durP2;ratioP2;P2;SDS_P1;SDS_P2;PMS_P1;PMS_P2;Temp;Humidity;BMP_temperature;BMP_pressure;BME280_temperature;BME280_humidity;BME280_pressure;Samples;Min_cycle;Max_cycle;Signal;HPM_P1;HPM_P2
2023/06/09 00:01:25;;;;;;;9.63;2.35;;;15.70;99.90;;;;;;5028162;28;20026;-74
2023/06/09 00:03:55;;;;;;;5.85;2.30;;;15.70;99.90;;;;;;5028143;28;20037;-73
2023/06/09 00:06:23;;;;;;;6.70;2.20;;;15.60;99.90;;;;;;5028427;28;20030;-74
2023/06/09 00:08:52;;;;;;;16.20;2.65;;;15.60;99.90;;;;;;5027517;28;20034;-73
2023/06/09 00:11:18;;;;;;;14.10;2.63;;;15.60;99.90;;;;;;5009319;28;20036;-73
2023/06/09 00:13:45;;;;;;;7.40;2.10;;;15.60;99.90;;;;;;5009129;28;20031;-72
2023/06/09 00:16:11;;;;;;;13.85;2.10;;;15.60;99.90;;;;;;5018891;28;20474;-73
2023/06/09 00:18:40;;;;;;;9.48;2.28;;;15.60;99.90;;;;;;5018820;28;20026;-72
2023/06/09 00:21:06;;;;;;;11.95;1.88;;;15.60;99.90;;;;;;5017616;28;20029;-73
2023/06/09 00:23:32;;;;;;;11.70;2.45;;;15.60;99.90;;;;;;5018178;28;20029;-73
2023/06/09 00:25:57;;;;;;;4.45;2.17;;;15.60;99.90;;;;;;5017531;28;20022;-73
2023/06/09 00:28:23;;;;;;;5.32;2.20;;;15.50;99.90;;;;;;5018251;28;20093;-73
2023/06/09 00:30:50;;;;;;;9.75;2.65;;;15.50;99.90;;;;;;5007188;28;20046;-72
2023/06/09 00:33:15;;;;;;;12.00;2.28;;;15.40;99.90;;;;;;5017265;28;20021;-73
2023/06/09 00:35:41;;;;;;;12.65;2.88;;;15.30;99.90;;;;;;5017308;28;20026;-73
2023/06/09 00:38:07;;;;;;;8.63;2.60;;;15.30;99.90;;;;;;5016813;28;20026;-73
2023/06/09 00:40:32;;;;;;;9.75;2.17;;;15.30;99.90;;;;;;5017632;28;20025;-73
2023/06/09 00:42:59;;;;;;;9.55;2.40;;;15.30;99.90;;;;;;5016808;28;20505;-73
2023/06/09 00:45:26;;;;;;;7.75;2.75;;;15.20;99.90;;;;;;5011124;28;20366;-73
2023/06/09 00:47:53;;;;;;;7.60;1.95;;;15.20;99.90;;;;;;4998399;28;20037;-72
2023/06/09 00:50:20;;;;;;;6.63;2.28;;;15.20;99.90;;;;;;5016956;28;20018;-73
2023/06/09 00:52:46;;;;;;;3.23;2.27;;;15.10;99.90;;;;;;5016257;28;20026;-73
2023/06/09 00:55:12;;;;;;;17.02;2.20;;;15.10;99.90;;;;;;5012258;28;20054;-72
2023/06/09 00:57:39;;;;;;;10.90;2.10;;;15.00;99.90;;;;;;5012867;28;20033;-72
2023/06/09 01:00:10;;;;;;;11.57;2.20;;;15.00;99.90;;;;;;4995821;28;20560;-73
2023/06/09 01:02:38;;;;;;;6.03;2.28;;;15.00;99.90;;;;;;4994265;28;20487;-73
2023/06/09 01:05:08;;;;;;;13.85;2.75;;;15.00;99.90;;;;;;4993511;28;20162;-73
2023/06/09 01:08:07;;;;;;;12.82;3.28;;;14.90;99.90;;;;;;5013796;28;20057;-73
2023/06/09 01:10:45;;;;;;;8.27;1.95;;;15.00;99.90;;;;;;5012953;28;20545;-73
2023/06/09 01:13:28;;;;;;;8.52;2.03;;;14.90;99.90;;;;;;5014039;28;20549;-73
2023/06/09 01:16:00;;;;;;;6.40;2.15;;;14.90;99.90;;;;;;5007774;28;20046;-73
2023/06/09 01:18:30;;;;;;;11.98;2.30;;;14.80;99.90;;;;;;5013749;28;20034;-73
2023/06/09 01:21:14;;;;;;;13.82;3.17;;;14.80;99.90;;;;;;5013743;28;20704;-73
2023/06/09 01:24:04;;;;;;;12.35;2.15;;;14.70;99.90;;;;;;5004607;28;20406;-73
2023/06/09 01:26:31;;;;;;;8.98;2.55;;;14.70;99.90;;;;;;5015185;28;20100;-73
2023/06/09 01:28:59;;;;;;;10.88;3.42;;;14.70;99.90;;;;;;5015507;28;20029;-72
2023/06/09 01:31:26;;;;;;;10.98;2.90;;;14.80;99.90;;;;;;5014709;28;20061;-73
2023/06/09 01:33:54;;;;;;;11.13;2.28;;;14.80;99.90;;;;;;5014932;28;20045;-72
2023/06/09 01:36:21;;;;;;;16.67;2.92;;;14.80;99.90;;;;;;5014698;28;20033;-72
2023/06/09 01:38:48;;;;;;;6.55;2.13;;;14.80;99.90;;;;;;5014160;28;20502;-73
2023/06/09 01:41:13;;;;;;;13.80;2.55;;;14.80;99.90;;;;;;5000981;28;20112;-73
2023/06/09 01:43:39;;;;;;;14.10;3.35;;;14.70;99.90;;;;;;5014697;28;20447;-72
2023/06/09 01:46:05;;;;;;;6.13;2.80;;;14.70;99.90;;;;;;5014435;28;20021;-73
2023/06/09 01:48:39;;;;;;;11.40;2.53;;;14.70;99.90;;;;;;5014428;28;20033;-73
2023/06/09 01:51:21;;;;;;;7.32;2.80;;;14.70;99.90;;;;;;5014993;28;20026;-73
2023/06/09 01:53:56;;;;;;;7.38;2.03;;;14.70;99.90;;;;;;5013702;28;20054;-72
2023/06/09 01:56:28;;;;;;;11.50;2.70;;;14.60;99.90;;;;;;5014622;28;20030;-72
2023/06/09 01:58:57;;;;;;;9.70;2.47;;;14.60;99.90;;;;;;5013547;28;20044;-72
2023/06/09 02:01:26;;;;;;;15.02;2.80;;;14.60;99.90;;;;;;5013287;28;20368;-73
2023/06/09 02:03:54;;;;;;;8.10;2.47;;;14.60;99.90;;;;;;5014794;28;20022;-73
2023/06/09 02:06:20;;;;;;;9.13;2.75;;;14.50;99.90;;;;;;5014694;28;20022;-72
2023/06/09 02:08:47;;;;;;;7.07;2.10;;;14.40;99.90;;;;;;5013851;28;20033;-72
2023/06/09 02:11:13;;;;;;;8.48;2.50;;;14.40;99.90;;;;;;5014297;28;20026;-72
2023/06/09 02:13:39;;;;;;;7.35;2.35;;;14.40;99.90;;;;;;5013415;28;20018;-72
2023/06/09 02:16:05;;;;;;;8.32;2.35;;;14.30;99.90;;;;;;5013273;28;20048;-72
2023/06/09 02:18:32;;;;;;;5.47;2.05;;;14.30;99.90;;;;;;5013519;28;20032;-71
2023/06/09 02:20:58;;;;;;;7.47;2.28;;;14.30;99.90;;;;;;5013394;28;20022;-74
2023/06/09 02:23:24;;;;;;;6.90;3.60;;;14.30;99.90;;;;;;5012565;28;20470;-74
2023/06/09 02:25:50;;;;;;;8.38;2.90;;;14.30;99.90;;;;;;5012368;28;20122;-74
2023/06/09 02:28:16;;;;;;;9.60;3.03;;;14.40;99.90;;;;;;5014196;28;20022;-73
2023/06/09 02:30:43;;;;;;;555.20;335.35;;;14.40;99.90;;;;;;5013466;28;20053;-74
2023/06/09 02:33:10;;;;;;;317.50;175.75;;;14.40;99.90;;;;;;5011720;28;20041;-73
2023/06/09 02:35:36;;;;;;;350.83;153.10;;;14.90;99.90;;;;;;5013359;28;20471;-73
2023/06/09 02:38:05;;;;;;;191.00;99.53;;;15.50;99.90;;;;;;5013786;28;20324;-73
2023/06/09 02:40:32;;;;;;;1999.90;834.58;;;16.30;99.90;;;;;;5013520;28;20425;-73
2023/06/09 02:42:58;;;;;;;325.50;136.32;;;16.90;99.90;;;;;;4992895;28;20471;-73
2023/06/09 02:45:24;;;;;;;92.25;32.38;;;16.80;99.90;;;;;;5011301;28;20055;-73
2023/06/09 02:47:50;;;;;;;9.32;3.90;;;16.30;99.90;;;;;;5013122;28;20108;-72
2023/06/09 02:50:16;;;;;;;21.30;3.15;;;15.70;99.90;;;;;;5012862;28;20517;-73
2023/06/09 02:52:42;;;;;;;7.28;2.33;;;15.30;99.90;;;;;;5013745;28;20073;-73
2023/06/09 02:55:08;;;;;;;5.05;2.58;;;15.10;99.90;;;;;;5009729;28;20058;-73
2023/06/09 02:57:34;;;;;;;6.38;2.28;;;14.90;99.90;;;;;;5013000;28;20064;-73
2023/06/09 03:00:00;;;;;;;11.50;3.53;;;14.70;99.90;;;;;;5013195;28;20069;-73
2023/06/09 03:02:28;;;;;;;4.38;2.72;;;14.60;99.90;;;;;;5012134;28;20014;-72
2023/06/09 03:04:55;;;;;;;10.25;2.35;;;14.50;99.90;;;;;;5013716;28;20053;-73
2023/06/09 03:07:20;;;;;;;8.27;2.90;;;14.40;99.90;;;;;;5013625;28;20018;-73
2023/06/09 03:09:46;;;;;;;5.32;2.20;;;14.30;99.90;;;;;;5012217;28;20042;-73
2023/06/09 03:12:12;;;;;;;7.50;2.90;;;14.30;99.90;;;;;;5013763;28;20109;-74
2023/06/09 03:14:39;;;;;;;10.10;2.50;;;14.20;99.90;;;;;;5012467;28;20036;-73
2023/06/09 03:17:05;;;;;;;12.05;2.92;;;14.10;99.90;;;;;;5013361;28;20109;-73
2023/06/09 03:19:31;;;;;;;7.05;2.78;;;14.00;99.90;;;;;;5012139;28;20046;-73
2023/06/09 03:21:57;;;;;;;19.33;4.72;;;13.90;99.90;;;;;;5009584;28;20038;-74
2023/06/09 03:24:24;;;;;;;7.20;2.53;;;13.90;99.90;;;;;;5013147;28;20032;-72
2023/06/09 03:26:52;;;;;;;8.38;2.40;;;13.90;99.90;;;;;;5013792;28;20430;-73
2023/06/09 03:29:19;;;;;;;10.25;2.30;;;13.80;99.90;;;;;;5013147;28;20026;-73
2023/06/09 03:31:45;;;;;;;11.25;2.75;;;13.80;99.90;;;;;;5010277;28;20104;-72
2023/06/09 03:34:10;;;;;;;14.18;3.38;;;13.80;99.90;;;;;;5006326;28;20467;-74
2023/06/09 03:36:37;;;;;;;6.57;2.75;;;13.80;99.90;;;;;;4993815;28;20031;-73
2023/06/09 03:39:03;;;;;;;3.80;2.37;;;13.70;99.90;;;;;;5000313;28;20041;-72
2023/06/09 03:41:29;;;;;;;8.98;3.28;;;13.70;99.90;;;;;;5013144;28;20108;-73
2023/06/09 03:43:55;;;;;;;7.63;2.72;;;13.60;99.90;;;;;;5013135;28;20101;-72
2023/06/09 03:46:21;;;;;;;9.50;3.17;;;13.60;99.90;;;;;;5012974;28;20037;-72
2023/06/09 03:48:47;;;;;;;6.50;3.17;;;13.50;99.90;;;;;;5009699;28;20071;-73
2023/06/09 03:51:13;;;;;;;12.27;2.42;;;13.50;99.90;;;;;;5013074;28;20478;-73
2023/06/09 03:53:39;;;;;;;15.25;2.78;;;13.60;99.90;;;;;;5012393;28;20022;-72
2023/06/09 03:56:05;;;;;;;5.50;2.88;;;13.60;99.90;;;;;;5013099;28;20026;-73
2023/06/09 03:58:30;;;;;;;6.57;3.17;;;13.60;99.90;;;;;;5012176;28;20026;-72
2023/06/09 04:00:56;;;;;;;8.88;3.25;;;13.50;99.90;;;;;;5013099;28;20033;-72
2023/06/09 04:03:22;;;;;;;6.20;3.10;;;13.50;99.90;;;;;;5011420;28;20545;-72
2023/06/09 04:05:49;;;;;;;9.02;3.22;;;13.50;99.90;;;;;;5012856;28;20026;-72
2023/06/09 04:08:15;;;;;;;11.75;2.95;;;13.50;99.90;;;;;;5028312;28;20470;-72
2023/06/09 04:10:41;;;;;;;9.95;3.35;;;13.50;99.90;;;;;;5011842;28;20026;-73
2023/06/09 04:13:08;;;;;;;7.63;3.15;;;13.60;99.90;;;;;;5012833;28;20030;-72
2023/06/09 04:15:34;;;;;;;11.00;2.83;;;13.60;99.90;;;;;;5005164;28;20049;-73
2023/06/09 04:18:01;;;;;;;13.32;2.92;;;13.60;99.90;;;;;;4997592;28;20064;-72
2023/06/09 04:20:26;;;;;;;7.25;3.55;;;13.60;99.90;;;;;;5012363;28;20026;-72
2023/06/09 04:22:53;;;;;;;10.35;2.78;;;13.70;99.90;;;;;;5012681;28;20025;-73
2023/06/09 04:25:25;;;;;;;26.60;3.43;;;13.70;99.90;;;;;;5011908;28;20034;-72
2023/06/09 04:27:55;;;;;;;16.98;3.58;;;13.70;99.90;;;;;;5007689;28;20142;-72
2023/06/09 04:30:29;;;;;;;15.32;3.45;;;13.80;99.90;;;;;;5007281;28;20482;-72
2023/06/09 04:32:59;;;;;;;10.00;3.40;;;13.80;99.90;;;;;;5012075;28;20026;-72
2023/06/09 04:35:24;;;;;;;7.30;2.78;;;13.90;99.90;;;;;;5012597;28;20030;-72
2023/06/09 04:37:51;;;;;;;11.20;2.67;;;13.90;99.90;;;;;;5012570;28;20026;-72
2023/06/09 04:40:23;;;;;;;14.07;2.97;;;13.90;99.90;;;;;;5011672;28;20037;-71
2023/06/09 04:42:56;;;;;;;12.18;3.28;;;13.90;99.90;;;;;;5012533;28;20018;-72
2023/06/09 04:45:27;;;;;;;5.35;2.90;;;14.00;99.90;;;;;;5030251;28;20068;-73
2023/06/09 04:47:53;;;;;;;13.15;3.17;;;14.00;99.90;;;;;;5015646;28;20021;-73
2023/06/09 04:50:19;;;;;;;10.52;3.03;;;14.10;99.90;;;;;;5015422;28;20033;-72
2023/06/09 04:52:45;;;;;;;11.32;3.33;;;14.20;99.90;;;;;;5015927;28;20083;-72
2023/06/09 04:55:14;;;;;;;7.03;3.17;;;14.20;99.90;;;;;;5030658;28;20029;-72
2023/06/09 04:57:40;;;;;;;21.45;3.38;;;14.20;99.90;;;;;;5015799;28;20132;-72
2023/06/09 05:00:12;;;;;;;8.77;3.28;;;14.20;99.90;;;;;;5015494;28;20029;-72
2023/06/09 05:02:39;;;;;;;13.85;3.20;;;14.30;99.90;;;;;;5015903;28;20096;-71
2023/06/09 05:05:05;;;;;;;9.38;2.92;;;14.40;99.90;;;;;;5014956;28;20026;-71
2023/06/09 05:07:31;;;;;;;12.88;3.10;;;14.50;99.90;;;;;;5015735;28;20026;-71
2023/06/09 05:09:56;;;;;;;7.30;2.95;;;14.50;99.90;;;;;;5014980;28;20040;-71
2023/06/09 05:12:22;;;;;;;11.02;3.22;;;14.50;99.90;;;;;;5014913;28;20030;-72
2023/06/09 05:14:47;;;;;;;6.78;2.70;;;14.60;99.90;;;;;;5014342;28;20392;-72
2023/06/09 05:17:13;;;;;;;11.88;3.33;;;14.60;99.90;;;;;;5006849;28;20037;-72
2023/06/09 05:19:39;;;;;;;12.45;3.08;;;14.70;99.90;;;;;;5012812;28;20022;-72
2023/06/09 05:22:04;;;;;;;13.60;3.58;;;14.70;99.90;;;;;;5015397;28;20026;-72
2023/06/09 05:24:30;;;;;;;7.63;3.03;;;14.80;99.90;;;;;;5014742;28;20497;-72
2023/06/09 05:26:56;;;;;;;7.50;3.08;;;14.80;99.90;;;;;;5014832;28;20418;-72
2023/06/09 05:29:21;;;;;;;11.02;4.00;;;14.90;99.90;;;;;;5014825;28;20029;-73
2023/06/09 05:31:47;;;;;;;7.55;3.13;;;14.90;99.90;;;;;;5015025;28;20049;-73
2023/06/09 05:34:12;;;;;;;15.27;3.25;;;15.00;99.90;;;;;;5013788;28;20155;-73
2023/06/09 05:36:38;;;;;;;7.95;3.35;;;15.10;99.90;;;;;;5017879;28;20482;-73
2023/06/09 05:39:03;;;;;;;5.90;3.03;;;15.10;99.90;;;;;;5014645;28;20033;-71
2023/06/09 05:41:29;;;;;;;17.02;4.45;;;15.20;99.90;;;;;;5014929;28;20064;-73
2023/06/09 05:43:57;;;;;;;11.40;3.78;;;15.30;99.90;;;;;;5013940;28;20505;-72
2023/06/09 05:46:23;;;;;;;13.95;3.75;;;15.30;99.90;;;;;;5014559;28;20011;-71
2023/06/09 05:48:50;;;;;;;11.65;3.17;;;15.40;99.90;;;;;;5002414;28;20102;-72
2023/06/09 05:51:17;;;;;;;11.95;3.97;;;15.50;99.90;;;;;;5013071;28;20030;-72
2023/06/09 05:53:43;;;;;;;9.40;3.53;;;15.60;99.90;;;;;;5014917;28;20029;-71
2023/06/09 05:56:09;;;;;;;8.30;4.43;;;15.60;99.90;;;;;;5013044;28;20407;-71
2023/06/09 05:58:36;;;;;;;11.68;3.35;;;15.70;99.90;;;;;;5014715;28;20101;-71
2023/06/09 06:01:03;;;;;;;10.30;4.03;;;15.90;99.90;;;;;;5014772;28;20445;-73
2023/06/09 06:03:29;;;;;;;10.68;3.70;;;16.10;99.90;;;;;;5014714;28;20022;-74
2023/06/09 06:05:54;;;;;;;9.15;3.47;;;16.20;99.90;;;;;;5014094;28;20018;-74
2023/06/09 06:08:20;;;;;;;7.57;3.40;;;16.30;99.90;;;;;;5015259;28;20025;-71
2023/06/09 06:10:46;;;;;;;10.13;3.85;;;16.40;99.90;;;;;;5019030;28;20035;-72
2023/06/09 06:13:13;;;;;;;17.02;4.63;;;16.70;99.90;;;;;;5025264;28;20486;-73
2023/06/09 06:15:38;;;;;;;13.55;3.92;;;17.00;99.90;;;;;;4996335;28;20458;-72
2023/06/09 06:18:04;;;;;;;9.07;3.92;;;17.00;99.90;;;;;;4994678;28;20070;-73
2023/06/09 06:20:30;;;;;;;7.43;3.28;;;17.10;99.90;;;;;;5005565;28;20552;-71
2023/06/09 06:22:57;;;;;;;7.78;3.20;;;17.40;99.90;;;;;;5016313;28;20021;-72
2023/06/09 06:25:23;;;;;;;13.65;3.08;;;18.00;99.90;;;;;;5011992;28;20374;-72
2023/06/09 06:27:49;;;;;;;10.60;3.45;;;18.50;99.90;;;;;;5010251;28;20136;-73
2023/06/09 06:30:15;;;;;;;7.80;3.67;;;19.10;99.90;;;;;;4995143;28;20026;-73
2023/06/09 06:32:52;;;;;;;9.25;3.80;;;19.40;99.90;;;;;;5014105;28;20494;-71
2023/06/09 06:35:26;;;;;;;14.80;4.60;;;19.40;99.90;;;;;;5013676;28;20026;-72
2023/06/09 06:37:51;;;;;;;10.65;3.55;;;19.40;99.90;;;;;;5000428;28;20033;-74
2023/06/09 06:40:17;;;;;;;6.15;3.95;;;19.20;99.90;;;;;;4996269;28;20022;-74
2023/06/09 06:42:43;;;;;;;23.20;4.38;;;19.30;99.90;;;;;;5027972;28;20029;-71
2023/06/09 06:45:09;;;;;;;8.00;3.58;;;19.80;99.90;;;;;;5008637;28;20026;-73
2023/06/09 06:47:34;;;;;;;8.77;3.53;;;19.90;99.90;;;;;;5012928;28;20030;-73
2023/06/09 06:50:00;;;;;;;10.98;3.63;;;20.00;99.90;;;;;;5009389;28;20034;-74
2023/06/09 06:52:26;;;;;;;10.27;3.42;;;20.00;99.90;;;;;;5011109;28;20080;-71
2023/06/09 06:54:51;;;;;;;9.07;4.50;;;19.90;99.90;;;;;;5011570;28;20030;-71
2023/06/09 06:57:17;;;;;;;11.75;3.67;;;19.60;99.90;;;;;;5012970;28;20040;-71
2023/06/09 06:59:43;;;;;;;11.85;3.90;;;19.70;99.90;;;;;;5012919;28;20032;-70
2023/06/09 07:02:09;;;;;;;20.50;4.00;;;20.10;99.90;;;;;;5010575;28;20095;-70
2023/06/09 07:04:36;;;;;;;8.40;4.23;;;20.70;99.90;;;;;;5011272;28;20037;-71
2023/06/09 07:07:02;;;;;;;8.45;4.03;;;21.60;99.90;;;;;;5011175;28;20053;-72
2023/06/09 07:09:28;;;;;;;14.60;4.60;;;22.60;99.90;;;;;;5009958;28;20028;-71
2023/06/09 07:11:53;;;;;;;11.60;3.80;;;23.30;99.90;;;;;;5006397;28;20096;-71
2023/06/09 07:14:19;;;;;;;9.35;3.88;;;24.50;99.90;;;;;;5010443;28;20026;-74
2023/06/09 07:16:45;;;;;;;9.48;3.90;;;25.50;99.90;;;;;;5013125;28;20498;-70
2023/06/09 07:19:11;;;;;;;11.50;3.83;;;25.60;99.90;;;;;;5012405;28;20018;-71
2023/06/09 07:21:37;;;;;;;8.02;3.90;;;25.90;99.90;;;;;;5013330;28;20044;-70
2023/06/09 07:24:05;;;;;;;11.20;3.60;;;26.10;99.90;;;;;;5011462;28;20406;-69
2023/06/09 07:26:32;;;;;;;6.03;3.50;;;25.60;99.90;;;;;;5011582;28;20104;-69
2023/06/09 07:28:58;;;;;;;10.10;3.78;;;25.20;99.90;;;;;;5012397;28;20026;-71
2023/06/09 07:31:24;;;;;;;16.02;4.60;;;25.30;99.90;;;;;;5011977;28;20057;-71
2023/06/09 07:33:50;;;;;;;13.57;5.13;;;25.90;99.90;;;;;;5013147;28;20394;-71
2023/06/09 07:36:16;;;;;;;6.22;3.85;;;26.00;99.90;;;;;;5012264;28;20026;-71
2023/06/09 07:38:43;;;;;;;12.43;3.95;;;26.20;99.90;;;;;;5012448;28;20052;-72
2023/06/09 07:41:09;;;;;;;11.23;3.60;;;26.20;99.90;;;;;;5012217;28;20137;-72
2023/06/09 07:43:35;;;;;;;16.88;4.28;;;25.90;99.90;;;;;;5012258;28;20109;-71
2023/06/09 07:46:01;;;;;;;10.35;3.97;;;24.80;99.90;;;;;;5013027;28;20105;-70
2023/06/09 07:48:27;;;;;;;8.65;3.90;;;24.30;99.90;;;;;;5011676;28;20022;-71
2023/06/09 07:50:53;;;;;;;7.30;3.72;;;24.10;99.90;;;;;;5010247;28;20030;-70
2023/06/09 07:53:20;;;;;;;8.35;4.20;;;23.90;99.90;;;;;;5011390;28;20033;-71
2023/06/09 07:55:45;;;;;;;8.43;3.67;;;23.80;99.90;;;;;;5011008;28;20485;-70
2023/06/09 07:58:11;;;;;;;8.80;4.35;;;24.00;99.90;;;;;;5010962;28;20042;-71
2023/06/09 08:00:37;;;;;;;10.52;3.45;;;24.10;99.90;;;;;;5012195;28;20144;-72
2023/06/09 08:03:04;;;;;;;10.15;4.03;;;24.40;99.90;;;;;;5012919;28;20108;-73
2023/06/09 08:05:30;;;;;;;7.68;3.47;;;24.40;99.90;;;;;;5012271;28;20036;-72
2023/06/09 08:07:57;;;;;;;5.63;3.53;;;24.60;99.90;;;;;;5011439;28;20160;-72
2023/06/09 08:10:23;;;;;;;14.07;4.45;;;24.90;99.90;;;;;;5010776;28;20152;-72
2023/06/09 08:12:52;;;;;;;13.30;4.30;;;25.30;99.90;;;;;;5012770;28;20117;-72
2023/06/09 08:15:18;;;;;;;7.80;3.50;;;25.40;99.90;;;;;;5013131;28;20104;-73
2023/06/09 08:17:44;;;;;;;5.28;3.47;;;25.70;99.90;;;;;;5011757;28;20112;-73
2023/06/09 08:20:10;;;;;;;7.93;4.07;;;26.00;99.90;;;;;;5015220;28;20528;-74
2023/06/09 08:22:36;;;;;;;7.00;4.13;;;26.10;99.90;;;;;;5016504;28;20026;-76
2023/06/09 08:25:03;;;;;;;6.35;3.33;;;26.30;99.90;;;;;;5015052;28;20287;-74
2023/06/09 08:27:28;;;;;;;6.75;3.60;;;26.70;99.90;;;;;;5030539;28;20517;-73
2023/06/09 08:29:54;;;;;;;10.68;4.78;;;26.90;99.90;;;;;;5015687;28;20026;-74
2023/06/09 08:32:20;;;;;;;7.20;4.05;;;27.30;98.70;;;;;;5013649;28;20313;-72
2023/06/09 08:34:45;;;;;;;11.98;3.70;;;27.40;99.30;;;;;;5013494;28;20446;-73
2023/06/09 08:37:12;;;;;;;7.18;3.97;;;27.20;99.60;;;;;;5015905;28;20479;-73
2023/06/09 08:39:38;;;;;;;7.80;3.78;;;27.10;99.90;;;;;;5017001;28;20030;-72
2023/06/09 08:42:25;;;;;;;5.65;3.15;;;26.90;99.60;;;;;;5017044;28;20066;-74
2023/06/09 08:45:04;;;;;;;9.23;4.05;;;26.90;99.70;;;;;;5016832;28;20026;-74
2023/06/09 08:47:29;;;;;;;6.70;4.18;;;26.70;99.60;;;;;;5017010;28;20072;-73
2023/06/09 08:49:58;;;;;;;6.65;3.33;;;26.40;99.90;;;;;;5016763;28;20030;-73
2023/06/09 08:52:25;;;;;;;8.70;3.60;;;26.50;99.90;;;;;;5016548;28;20029;-74
2023/06/09 08:54:52;;;;;;;7.28;3.58;;;27.10;99.60;;;;;;5016201;28;20037;-73
2023/06/09 08:57:18;;;;;;;8.63;3.13;;;27.60;99.10;;;;;;5016528;28;20482;-74
2023/06/09 08:59:47;;;;;;;12.20;3.85;;;27.80;99.20;;;;;;5015236;28;20022;-73
2023/06/09 09:02:14;;;;;;;12.23;4.97;;;28.00;98.90;;;;;;5014762;28;20026;-73
2023/06/09 09:04:40;;;;;;;16.20;4.53;;;27.70;98.70;;;;;;5014384;28;20053;-74
2023/06/09 09:07:08;;;;;;;7.10;4.07;;;28.00;98.40;;;;;;5014323;28;20423;-74
2023/06/09 09:09:34;;;;;;;8.57;4.93;;;27.80;98.60;;;;;;5015790;28;20035;-73
2023/06/09 09:12:01;;;;;;;6.17;3.47;;;27.60;98.60;;;;;;5015614;28;20034;-73
2023/06/09 09:14:26;;;;;;;4.75;3.20;;;27.20;99.00;;;;;;5012738;28;20109;-73
2023/06/09 09:16:52;;;;;;;5.82;3.97;;;27.50;99.10;;;;;;5025293;28;20507;-73
2023/06/09 09:19:28;;;;;;;8.87;3.40;;;27.40;99.00;;;;;;4999721;28;20495;-73
2023/06/09 09:21:56;;;;;;;9.18;3.70;;;27.40;98.80;;;;;;5013388;28;20030;-73
2023/06/09 09:24:29;;;;;;;13.98;4.00;;;27.80;98.50;;;;;;5015283;28;20493;-74
2023/06/09 09:26:56;;;;;;;7.20;3.67;;;27.70;98.90;;;;;;5012032;28;20030;-72
2023/06/09 09:29:26;;;;;;;8.18;3.83;;;27.50;99.00;;;;;;5014528;28;20033;-72
2023/06/09 09:31:58;;;;;;;5.68;3.83;;;27.60;98.90;;;;;;5014297;28;20078;-72
2023/06/09 09:34:26;;;;;;;9.77;4.55;;;27.50;99.10;;;;;;5014350;28;20537;-72
2023/06/09 09:36:55;;;;;;;5.25;3.63;;;27.70;98.70;;;;;;5012049;28;20042;-73
2023/06/09 09:39:24;;;;;;;6.80;3.50;;;27.90;98.80;;;;;;5010582;28;20041;-73
2023/06/09 09:42:10;;;;;;;7.00;3.60;;;27.80;98.80;;;;;;5015068;28;20558;-73
2023/06/09 09:44:43;;;;;;;6.93;4.22;;;27.30;98.70;;;;;;5006087;28;20030;-73
2023/06/09 09:47:12;;;;;;;4.43;3.70;;;27.10;99.30;;;;;;5012252;28;20117;-73
2023/06/09 09:49:53;;;;;;;9.10;4.28;;;27.20;99.50;;;;;;5014247;28;20026;-73
2023/06/09 09:52:33;;;;;;;6.10;4.25;;;27.30;99.20;;;;;;5013979;28;20026;-72
2023/06/09 09:55:00;;;;;;;4.68;3.50;;;27.10;99.70;;;;;;4995380;28;20487;-73
2023/06/09 09:57:30;;;;;;;7.55;3.85;;;27.00;99.40;;;;;;5011915;28;20042;-73
2023/06/09 09:59:59;;;;;;;8.35;4.07;;;27.10;99.40;;;;;;5014088;28;20036;-72
2023/06/09 10:02:25;;;;;;;9.40;3.70;;;27.20;99.50;;;;;;5014625;28;20022;-73
2023/06/09 10:04:53;;;;;;;6.65;3.70;;;27.40;99.40;;;;;;5014729;28;20050;-72
2023/06/09 10:07:23;;;;;;;4.72;4.13;;;27.70;98.90;;;;;;5014242;28;20033;-73
2023/06/09 10:09:53;;;;;;;6.93;3.38;;;28.20;99.00;;;;;;5010254;28;20040;-74
2023/06/09 10:12:19;;;;;;;6.70;3.85;;;28.40;98.30;;;;;;5014425;28;20033;-73
2023/06/09 10:14:48;;;;;;;4.97;3.58;;;29.00;97.60;;;;;;5012598;28;20489;-74
2023/06/09 10:17:15;;;;;;;4.07;3.67;;;28.80;97.80;;;;;;5013301;28;20037;-73
2023/06/09 10:19:42;;;;;;;7.57;3.88;;;28.50;97.90;;;;;;5013919;28;20386;-73
2023/06/09 10:22:08;;;;;;;;;;;28.30;97.80;;;;;;5014827;28;20101;-74
2023/06/09 10:24:36;;;;;;;6.47;3.67;;;28.60;97.80;;;;;;5010635;28;20000;-73
2023/06/09 10:27:04;;;;;;;13.30;4.35;;;29.20;96.90;;;;;;5011978;28;20045;-73
2023/06/09 10:29:29;;;;;;;7.53;3.17;;;29.20;97.10;;;;;;5014692;28;20028;-74
2023/06/09 10:31:57;;;;;;;3.88;2.72;;;29.00;97.20;;;;;;5005036;28;20046;-74
2023/06/09 10:34:28;;;;;;;5.28;3.45;;;29.60;95.80;;;;;;5005856;28;20431;-73
2023/06/09 10:36:54;;;;;;;3.90;3.35;;;29.70;96.50;;;;;;5014875;28;20571;-74
2023/06/09 10:39:23;;;;;;;4.80;3.22;;;29.80;95.80;;;;;;5006562;28;20515;-74
2023/06/09 10:42:25;;;;;;;13.18;3.55;;;30.00;96.00;;;;;;4994658;28;20033;-73
2023/06/09 10:45:08;;;;;;;8.50;4.28;;;29.90;96.50;;;;;;4998383;28;20034;-74
2023/06/09 10:47:50;;;;;;;4.72;3.60;;;29.50;96.40;;;;;;5014583;28;20108;-74
2023/06/09 10:50:32;;;;;;;6.97;4.07;;;29.20;96.60;;;;;;5013287;28;20121;-73
2023/06/09 10:52:59;;;;;;;5.03;3.75;;;28.80;96.60;;;;;;5013664;28;20022;-73
2023/06/09 10:55:30;;;;;;;4.53;3.58;;;28.70;97.00;;;;;;5006653;28;20072;-73
2023/06/09 10:57:57;;;;;;;5.90;3.88;;;29.10;96.40;;;;;;4991179;28;20049;-73
2023/06/09 11:00:25;;;;;;;10.20;4.05;;;29.20;96.70;;;;;;5012322;28;20010;-72
2023/06/09 11:03:08;;;;;;;4.93;3.67;;;29.30;96.60;;;;;;5013765;28;20022;-73
2023/06/09 11:05:42;;;;;;;6.30;3.30;;;29.60;95.70;;;;;;5008276;28;20037;-73
2023/06/09 11:08:09;;;;;;;5.07;4.32;;;29.80;95.70;;;;;;5013252;28;20021;-74
2023/06/09 11:10:36;;;;;;;6.20;3.80;;;29.80;95.90;;;;;;5009767;28;20018;-74
2023/06/09 11:13:22;;;;;;;6.60;4.03;;;29.70;96.80;;;;;;5026756;28;20120;-73
2023/06/09 11:16:01;;;;;;;6.38;4.13;;;29.40;96.60;;;;;;5029786;28;20396;-73
2023/06/09 11:18:27;;;;;;;10.88;4.55;;;29.40;95.70;;;;;;5014373;28;20091;-73
2023/06/09 11:21:09;;;;;;;9.93;3.95;;;29.10;96.80;;;;;;5025063;28;20100;-73
2023/06/09 11:23:55;;;;;;;5.18;4.10;;;28.40;97.20;;;;;;5014246;28;20083;-73
2023/06/09 11:26:22;;;;;;;5.60;4.55;;;28.10;97.90;;;;;;5029318;28;20025;-73
2023/06/09 11:28:48;;;;;;;6.72;4.18;;;27.90;97.80;;;;;;5026663;28;20033;-73
2023/06/09 11:31:15;;;;;;;6.28;3.85;;;28.00;97.50;;;;;;5028892;28;20422;-73
2023/06/09 11:33:45;;;;;;;7.57;4.28;;;28.30;97.60;;;;;;5012914;28;20071;-73
2023/06/09 11:36:16;;;;;;;8.45;4.47;;;28.60;97.50;;;;;;5030866;28;20033;-74
2023/06/09 11:38:42;;;;;;;10.50;3.75;;;28.70;97.40;;;;;;5011048;28;20040;-74
2023/06/09 11:41:11;;;;;;;6.18;3.70;;;28.60;97.30;;;;;;5030741;28;20525;-74
2023/06/09 11:43:37;;;;;;;4.53;3.70;;;28.80;96.50;;;;;;5017969;28;20041;-74
2023/06/09 11:46:03;;;;;;;5.80;3.47;;;29.20;95.50;;;;;;5009976;28;20030;-73
2023/06/09 11:48:30;;;;;;;7.18;3.63;;;29.40;95.70;;;;;;5011096;28;20084;-72
2023/06/09 11:50:55;;;;;;;4.88;3.67;;;29.60;95.80;;;;;;5013087;28;20014;-73
2023/06/09 11:53:24;;;;;;;5.93;3.78;;;29.80;96.60;;;;;;5012269;28;20382;-73
2023/06/09 11:56:00;;;;;;;11.85;4.60;;;29.70;96.80;;;;;;5017171;28;20030;-75
2023/06/09 11:58:26;;;;;;;8.40;3.75;;;29.50;96.90;;;;;;5016541;28;20379;-73
2023/06/09 12:00:52;;;;;;;6.15;3.38;;;29.40;96.60;;;;;;5015197;28;20099;-73
2023/06/09 12:03:19;;;;;;;4.50;3.67;;;29.60;96.50;;;;;;5013745;28;20119;-73
2023/06/09 12:05:49;;;;;;;6.20;3.20;;;29.50;95.40;;;;;;5016452;28;20030;-74
2023/06/09 12:08:15;;;;;;;5.00;3.42;;;29.60;95.00;;;;;;5016959;28;20022;-74
2023/06/09 12:10:41;;;;;;;5.38;3.38;;;30.00;94.70;;;;;;5016444;28;20030;-75
2023/06/09 12:13:07;;;;;;;5.13;3.50;;;30.00;94.80;;;;;;5017651;28;20072;-74
2023/06/09 12:15:33;;;;;;;7.00;3.72;;;30.00;93.80;;;;;;5017208;28;20033;-75
2023/06/09 12:18:02;;;;;;;5.93;3.75;;;30.00;93.40;;;;;;5017089;28;20029;-73
2023/06/09 12:20:36;;;;;;;4.97;3.83;;;30.20;94.00;;;;;;5017333;28;20022;-74
2023/06/09 12:23:07;;;;;;;4.70;3.17;;;30.30;94.10;;;;;;5016687;28;20028;-73
2023/06/09 12:25:38;;;;;;;5.03;3.40;;;30.60;93.50;;;;;;5003161;28;20077;-74
2023/06/09 12:28:16;;;;;;;6.05;3.40;;;30.80;93.30;;;;;;4997509;28;20482;-73
2023/06/09 12:30:47;;;;;;;7.15;3.80;;;30.90;93.80;;;;;;5006209;28;20398;-73
2023/06/09 12:33:20;;;;;;;4.68;3.50;;;30.90;93.10;;;;;;5015238;28;20054;-74
2023/06/09 12:35:53;;;;;;;4.20;3.15;;;30.80;92.80;;;;;;5015827;28;20026;-75
2023/06/09 12:38:22;;;;;;;4.78;3.20;;;31.10;92.60;;;;;;5015723;28;20076;-72
2023/06/09 12:41:08;;;;;;;3.17;2.88;;;31.00;92.90;;;;;;5010565;28;20367;-73
2023/06/09 12:43:48;;;;;;;6.03;3.05;;;30.60;93.10;;;;;;5015766;28;20022;-72
2023/06/09 12:46:19;;;;;;;4.47;2.90;;;30.50;92.50;;;;;;5014985;28;20054;-75
2023/06/09 12:49:01;;;;;;;3.40;3.10;;;30.70;92.40;;;;;;5015304;28;20022;-73